KANQ/ANQ METAR and TAF weather

Enter ICAO airport designator
Station Type Date Time Source
KANQ METAR 2020/04/07 03:15 UTC NOAA

KANQ 070315Z AUTO 12007KT 9SM SCT044 BKN060 OVC075 10/05 A2996 RMK AO2


Station Type Date Time Source
KANQ Decoded METAR 2020/04/07 03:15 UTC NOAA

Station name not available
Apr 06, 2020 - 11:15 PM EDT / 2020.04.07 0315 UTC
Wind: from the ESE (120 degrees) at 8 MPH (7 KT):0
Visibility: 9 mile(s):0
Sky conditions: overcast
Temperature: 50 F (10 C)
Dew Point: 41 F (5 C)
Relative Humidity: 71%
Pressure (altimeter): 29.96 in. Hg (1014 hPa)
ob: KANQ 070315Z AUTO 12007KT 9SM SCT044 BKN060 OVC075 10/05 A2996 RMK AO2
cycle: 3

Station Type Date Time Source
KANQ TAF UTC NOAA

Error!

Example: see airport list